Time;durP1;ratioP1;P1;durP2;ratioP2;P2;SDS_P1;SDS_P2;PMS_P1;PMS_P2;Temp;Humidity;BMP_temperature;BMP_pressure;BME280_temperature;BME280_humidity;BME280_pressure;Samples;Min_cycle;Max_cycle;Signal;HPM_P1;HPM_P2
2022/01/12 00:01:01;;;;;;;112.95;52.45;;;;;;;0.34;60.14;102071.69;5025216;28;20045;-71
2022/01/12 00:03:28;;;;;;;126.82;53.25;;;;;;;0.33;59.96;102070.00;5024171;28;20133;-69
2022/01/12 00:05:55;;;;;;;168.10;75.07;;;;;;;0.29;59.95;102069.13;5024660;28;20042;-72
2022/01/12 00:08:22;;;;;;;127.15;58.70;;;;;;;0.26;59.88;102078.66;5025216;28;20052;-69
2022/01/12 00:10:51;;;;;;;167.93;72.13;;;;;;;0.26;60.06;102076.91;5024317;28;20124;-68
2022/01/12 00:13:18;;;;;;;94.07;48.58;;;;;;;0.26;59.77;102073.47;5025108;28;20069;-72
2022/01/12 00:15:45;;;;;;;83.60;43.22;;;;;;;0.30;59.88;102077.78;5025759;28;20413;-70
2022/01/12 00:18:12;;;;;;;98.43;40.92;;;;;;;0.31;59.89;102080.38;5025467;28;20136;-70
2022/01/12 00:20:39;;;;;;;97.60;48.55;;;;;;;0.34;59.53;102082.09;5024687;28;20112;-69
2022/01/12 00:23:06;;;;;;;158.05;58.88;;;;;;;0.35;59.55;102070.84;5025771;28;20048;-70
2022/01/12 00:25:45;;;;;;;86.50;42.28;;;;;;;0.41;59.47;102069.97;5025211;28;20193;-68
2022/01/12 00:33:42;;;;;;;80.75;37.88;;;;;;;0.55;59.20;102069.06;5024986;28;20052;-70
2022/01/12 00:36:09;;;;;;;85.35;37.72;;;;;;;0.54;59.16;102067.38;5027300;28;20046;-68
2022/01/12 00:38:36;;;;;;;75.68;34.15;;;;;;;0.54;59.12;102069.06;5027180;28;20137;-70
2022/01/12 00:41:03;;;;;;;83.40;37.20;;;;;;;0.56;59.46;102063.03;5029243;28;20071;-67
2022/01/12 00:43:34;;;;;;;71.78;36.92;;;;;;;0.50;59.17;102065.63;5029062;28;20050;-67
2022/01/12 00:46:01;;;;;;;73.25;36.42;;;;;;;0.47;59.08;102064.75;5029487;28;20100;-69
2022/01/12 00:48:28;;;;;;;70.35;35.58;;;;;;;0.44;58.80;102060.44;5029190;28;20073;-69
2022/01/12 00:50:55;;;;;;;69.18;37.10;;;;;;;0.43;58.94;102063.88;5027078;28;20053;-68
2022/01/12 00:53:22;;;;;;;64.60;34.88;;;;;;;0.42;58.86;102071.72;5028019;28;20045;-69
2022/01/12 00:55:49;;;;;;;65.95;31.35;;;;;;;0.42;58.96;102074.31;5028280;28;20053;-67
2022/01/12 00:58:16;;;;;;;64.07;30.02;;;;;;;0.51;58.47;102067.34;5028316;28;20060;-68
2022/01/12 01:00:44;;;;;;;75.22;30.40;;;;;;;0.60;58.70;102076.88;5028223;28;20386;-68
2022/01/12 01:03:11;;;;;;;62.05;33.17;;;;;;;0.63;58.45;102065.59;5028930;28;20053;-68
2022/01/12 01:05:39;;;;;;;62.83;29.92;;;;;;;0.61;58.32;102070.78;5027726;28;20737;-69
2022/01/12 01:08:07;;;;;;;59.30;28.40;;;;;;;0.66;58.58;102063.00;5027947;28;20082;-69
2022/01/12 01:10:45;;;;;;;63.67;29.85;;;;;;;0.70;58.33;102067.31;5028045;28;20087;-69
2022/01/12 01:13:14;;;;;;;64.55;32.17;;;;;;;0.71;58.12;102066.47;5028165;28;20056;-75
2022/01/12 01:15:56;;;;;;;61.72;25.92;;;;;;;0.74;58.36;102069.06;5029432;28;20092;-69
2022/01/12 01:26:41;;;;;;;51.67;27.35;;;;;;;0.63;58.13;102065.59;5029443;28;20057;-71
2022/01/12 01:29:08;;;;;;;62.00;30.90;;;;;;;0.58;58.27;102063.03;5029188;28;20369;-73
2022/01/12 01:31:36;;;;;;;59.67;27.30;;;;;;;0.55;58.30;102065.63;5030159;28;20053;-74
2022/01/12 01:34:09;;;;;;;58.67;27.27;;;;;;;0.55;57.97;102061.28;5029153;28;20078;-71
2022/01/12 01:36:38;;;;;;;48.05;23.90;;;;;;;0.54;58.31;102062.16;5029740;28;20486;-71
2022/01/12 01:39:07;;;;;;;48.13;28.85;;;;;;;0.55;58.02;102068.22;5028260;28;20417;-70
2022/01/12 01:41:34;;;;;;;54.28;26.83;;;;;;;0.52;57.99;102065.63;5028459;28;20245;-74
2022/01/12 01:55:17;;;;;;;55.83;27.80;;;;;;;0.40;57.92;102068.22;4872778;29;20089;-69
2022/01/12 01:57:44;;;;;;;49.88;25.85;;;;;;;0.35;57.91;102058.72;4871431;29;20056;-74
2022/01/12 02:00:15;;;;;;;36.33;18.52;;;;;;;0.41;57.97;102065.63;4871782;29;20599;-71
2022/01/12 02:02:44;;;;;;;43.90;22.67;;;;;;;0.43;57.58;102063.88;4871572;29;20053;-69
2022/01/12 02:05:12;;;;;;;42.58;22.40;;;;;;;0.50;57.53;102060.41;4871518;29;20049;-74
2022/01/12 02:07:39;;;;;;;45.33;26.83;;;;;;;0.45;57.46;102061.28;4871679;29;20057;-72
2022/01/12 02:10:07;;;;;;;44.45;24.52;;;;;;;0.42;57.46;102058.72;4870802;29;20067;-69
2022/01/12 02:12:34;;;;;;;43.35;24.15;;;;;;;0.38;57.55;102060.47;4870907;29;20049;-70
2022/01/12 02:15:02;;;;;;;48.30;22.52;;;;;;;0.38;57.73;102063.06;4871393;29;20052;-71
2022/01/12 02:17:35;;;;;;;45.67;25.73;;;;;;;0.36;57.54;102062.16;4871501;29;20060;-72
2022/01/12 02:36:30;;;;;;;29.70;15.35;;;;;;;0.65;57.08;102043.06;5011559;28;20545;-71
2022/01/12 02:41:43;;;;;;;;;;;;;;;0.73;56.72;102038.72;5009195;28;20060;-68
2022/01/12 02:55:10;;;;;;;53.22;24.63;;;;;;;0.64;56.94;102046.53;5007451;28;20057;-69
2022/01/12 02:57:37;;;;;;;71.57;29.45;;;;;;;0.60;57.15;102042.22;5007166;28;20128;-69
2022/01/12 03:00:09;;;;;;;44.33;24.50;;;;;;;0.53;56.60;102037.03;5007629;28;20052;-69
2022/01/12 03:02:38;;;;;;;50.10;25.85;;;;;;;0.51;56.84;102040.50;5005933;28;20057;-71
2022/01/12 03:05:32;;;;;;;50.53;25.92;;;;;;;0.52;56.75;102042.22;5008764;28;20049;-70
2022/01/12 03:08:10;;;;;;;53.38;28.70;;;;;;;0.53;56.30;102047.41;5009642;28;20045;-72
2022/01/12 03:10:39;;;;;;;95.47;42.83;;;;;;;0.51;56.32;102046.56;5006970;28;20138;-69
2022/01/12 03:13:06;;;;;;;66.97;36.15;;;;;;;0.49;56.54;102053.50;5006218;28;20717;-69
2022/01/12 03:15:39;;;;;;;64.15;31.33;;;;;;;0.49;56.68;102055.25;5008656;28;20580;-68
2022/01/12 03:18:07;;;;;;;69.28;35.55;;;;;;;0.50;56.16;102054.34;5008428;28;20053;-68
2022/01/12 03:20:34;;;;;;;44.65;21.95;;;;;;;0.52;56.34;102058.69;5005409;28;20050;-71
2022/01/12 03:23:01;;;;;;;37.70;18.42;;;;;;;0.57;56.57;102050.88;5006914;28;20631;-69
2022/01/12 03:25:28;;;;;;;35.83;19.08;;;;;;;0.70;56.17;102051.72;5007229;28;20046;-71
2022/01/12 03:28:00;;;;;;;33.55;16.85;;;;;;;0.80;56.22;102052.56;5008350;28;20060;-73
2022/01/12 03:30:34;;;;;;;36.33;16.63;;;;;;;0.88;56.19;102053.38;5006888;28;20556;-69
2022/01/12 03:33:09;;;;;;;32.40;16.48;;;;;;;0.93;55.87;102057.69;5007179;28;20045;-68
2022/01/12 03:35:49;;;;;;;33.03;17.33;;;;;;;1.01;55.85;102052.50;5007074;28;20072;-70
2022/01/12 03:38:22;;;;;;;47.63;23.05;;;;;;;0.99;55.94;102055.94;5006490;28;20410;-67
2022/01/12 03:40:49;;;;;;;35.72;19.77;;;;;;;0.94;55.86;102054.25;5006562;28;20137;-65
2022/01/12 03:43:18;;;;;;;24.30;12.95;;;;;;;0.91;55.58;102054.25;5006513;28;20049;-68
2022/01/12 03:45:46;;;;;;;25.98;15.75;;;;;;;0.84;54.64;102049.06;5006110;28;20077;-70
2022/01/12 03:48:13;;;;;;;29.45;16.83;;;;;;;0.78;54.41;102062.13;5007332;28;20056;-70
2022/01/12 03:50:41;;;;;;;27.90;16.00;;;;;;;0.70;53.67;102054.31;5009972;28;20045;-67
2022/01/12 03:53:08;;;;;;;33.67;19.67;;;;;;;0.68;53.62;102053.44;5026101;28;20049;-69
2022/01/12 03:55:35;;;;;;;32.17;18.48;;;;;;;0.65;53.77;102059.53;5008374;28;20049;-68
2022/01/12 03:58:02;;;;;;;35.10;20.05;;;;;;;0.64;54.24;102055.19;5008321;28;20620;-68
2022/01/12 04:00:30;;;;;;;31.20;19.30;;;;;;;0.68;54.11;102053.44;5025338;28;20497;-68
2022/01/12 04:03:00;;;;;;;32.33;18.73;;;;;;;0.68;54.12;102050.84;5026682;28;20060;-69
2022/01/12 04:05:40;;;;;;;38.30;20.58;;;;;;;0.68;54.17;102056.91;5025176;28;20049;-70
2022/01/12 04:08:20;;;;;;;43.25;23.33;;;;;;;0.69;54.07;102052.59;5026322;28;20075;-70
2022/01/12 04:10:47;;;;;;;34.83;19.60;;;;;;;0.69;53.72;102050.84;5026382;28;20048;-69
2022/01/12 04:13:14;;;;;;;30.35;18.70;;;;;;;0.68;54.01;102054.31;5024884;28;20453;-68
2022/01/12 04:15:44;;;;;;;36.53;20.23;;;;;;;0.69;54.23;102055.19;5026597;28;20632;-70
2022/01/12 04:18:12;;;;;;;37.83;20.02;;;;;;;0.66;53.97;102052.59;5026871;28;20076;-68
2022/01/12 04:20:45;;;;;;;32.72;17.92;;;;;;;0.64;54.31;102051.75;5023601;28;20041;-67
2022/01/12 04:23:18;;;;;;;27.58;15.57;;;;;;;0.66;54.35;102060.41;5024790;28;20053;-68
2022/01/12 04:25:46;;;;;;;31.73;16.25;;;;;;;0.68;54.00;102058.66;5026697;28;20052;-68
2022/01/12 04:28:14;;;;;;;33.50;19.77;;;;;;;0.66;54.10;102065.59;5025732;28;20067;-71
2022/01/12 04:30:43;;;;;;;36.08;20.90;;;;;;;0.65;53.91;102056.94;5026859;28;20103;-71
2022/01/12 04:33:11;;;;;;;35.50;18.33;;;;;;;0.66;54.04;102060.41;5026228;28;20246;-72
2022/01/12 04:35:45;;;;;;;38.25;19.27;;;;;;;0.69;54.00;102056.06;5026333;28;20497;-75
2022/01/12 04:38:13;;;;;;;35.67;17.38;;;;;;;0.70;53.38;102062.09;5026982;28;20053;-75
2022/01/12 04:40:40;;;;;;;48.45;20.90;;;;;;;0.65;53.61;102058.66;5027540;28;20096;-71
2022/01/12 04:43:08;;;;;;;37.75;19.88;;;;;;;0.64;54.20;102055.19;5026516;28;20075;-73
2022/01/12 04:45:45;;;;;;;40.08;19.58;;;;;;;0.67;54.00;102059.53;5026761;28;20218;-75
2022/01/12 04:50:56;;;;;;;44.50;22.23;;;;;;;0.69;54.07;102057.81;5024429;28;20143;-73
2022/01/12 04:53:25;;;;;;;54.30;26.67;;;;;;;0.66;54.44;102058.66;5028146;28;20060;-72
2022/01/12 04:55:52;;;;;;;53.90;24.63;;;;;;;0.68;54.53;102058.66;5027123;28;20059;-72
2022/01/12 04:58:21;;;;;;;52.85;27.85;;;;;;;0.67;54.37;102055.19;5026877;28;20132;-76
2022/01/12 05:00:50;;;;;;;52.08;28.90;;;;;;;0.66;54.65;102052.59;5026709;28;20041;-72
2022/01/12 05:06:39;;;;;;;54.28;29.65;;;;;;;0.52;54.86;102065.63;5026671;28;20056;-75
2022/01/12 05:15:05;;;;;;;50.35;26.15;;;;;;;0.48;55.14;102067.34;5125752;27;20050;-72
2022/01/12 05:17:34;;;;;;;38.20;21.70;;;;;;;0.50;54.79;102063.00;5124799;27;20062;-69
2022/01/12 05:20:01;;;;;;;37.40;17.15;;;;;;;0.57;54.54;102056.94;5124334;28;20043;-74
2022/01/12 05:22:28;;;;;;;33.83;16.13;;;;;;;0.69;54.26;102060.41;5125708;28;20075;-72
2022/01/12 05:24:55;;;;;;;24.75;14.50;;;;;;;0.73;53.60;102056.91;5125106;27;20040;-71
2022/01/12 05:27:24;;;;;;;22.55;13.63;;;;;;;0.73;52.59;102057.78;5127086;27;20047;-76
2022/01/12 05:29:51;;;;;;;24.15;12.73;;;;;;;0.82;52.71;102053.41;5127663;28;20049;-78
2022/01/12 05:32:18;;;;;;;25.08;12.60;;;;;;;0.90;52.46;102052.53;5133372;27;20146;-73
2022/01/12 05:34:44;;;;;;;22.83;12.90;;;;;;;0.94;52.84;102049.03;5107901;28;20507;-76
2022/01/12 05:37:12;;;;;;;55.03;34.45;;;;;;;0.77;52.44;102043.03;5128170;27;20048;-79
2022/01/12 05:39:39;;;;;;;71.70;41.03;;;;;;;0.63;53.49;102052.59;5127529;28;20043;-72
2022/01/12 05:42:07;;;;;;;86.75;43.63;;;;;;;0.53;54.17;102044.81;5125971;28;20052;-77
2022/01/12 05:44:40;;;;;;;92.38;41.53;;;;;;;0.51;54.77;102054.34;5123963;28;20074;-76
2022/01/12 05:47:17;;;;;;;92.18;44.08;;;;;;;0.49;55.01;102056.09;5134673;27;20082;-72
2022/01/12 05:49:44;;;;;;;79.32;37.80;;;;;;;0.50;55.04;102057.81;5124407;27;20105;-71
2022/01/12 05:52:12;;;;;;;77.90;40.08;;;;;;;0.45;55.56;102051.78;5123219;28;20070;-74
2022/01/12 05:54:39;;;;;;;98.70;52.80;;;;;;;0.38;56.35;102061.31;5126353;28;20057;-73
2022/01/12 05:57:07;;;;;;;88.38;43.15;;;;;;;0.39;56.42;102056.97;5129904;27;20053;-73
2022/01/12 05:59:35;;;;;;;83.80;39.25;;;;;;;0.40;56.34;102045.72;5131776;27;20049;-72
2022/01/12 06:02:03;;;;;;;85.00;44.92;;;;;;;0.47;56.57;102059.56;5124442;28;20612;-68
2022/01/12 06:04:30;;;;;;;81.63;40.05;;;;;;;0.44;56.34;102056.97;5125041;27;20082;-67
2022/01/12 06:07:01;;;;;;;101.00;49.80;;;;;;;0.38;56.90;102060.47;5124819;27;20077;-72
2022/01/12 06:09:28;;;;;;;111.60;49.92;;;;;;;0.35;57.11;102063.06;5122940;27;20050;-72
2022/01/12 06:11:56;;;;;;;103.75;52.13;;;;;;;0.34;57.66;102069.09;5122992;28;20065;-72
2022/01/12 06:14:23;;;;;;;108.47;53.92;;;;;;;0.31;57.68;102066.53;5125784;27;20047;-81
2022/01/12 06:16:52;;;;;;;118.38;51.40;;;;;;;0.29;57.62;102070.84;5125715;27;20106;-69
2022/01/12 06:19:19;;;;;;;119.20;51.53;;;;;;;0.33;57.67;102070.00;5125130;28;20718;-75
2022/01/12 06:21:46;;;;;;;118.63;55.33;;;;;;;0.34;57.79;102080.38;5119484;27;20058;-73
2022/01/12 06:24:13;;;;;;;118.57;51.65;;;;;;;0.37;57.91;102069.09;5110060;28;20050;-69
2022/01/12 06:26:41;;;;;;;119.32;66.93;;;;;;;0.41;58.10;102080.38;5108580;28;20055;-66
2022/01/12 06:29:27;;;;;;;119.90;63.65;;;;;;;0.33;58.22;102082.97;5107200;28;20043;-69
2022/01/12 06:31:58;;;;;;;110.43;50.72;;;;;;;0.27;58.41;102080.38;5107881;28;20048;-67
2022/01/12 06:34:25;;;;;;;120.20;51.45;;;;;;;0.29;58.46;102081.22;5109108;28;20043;-74
2022/01/12 06:36:52;;;;;;;100.07;46.03;;;;;;;0.35;58.42;102079.50;5108552;28;20044;-69
2022/01/12 06:39:22;;;;;;;100.88;46.20;;;;;;;0.39;58.22;102080.38;5108949;28;20050;-67
2022/01/12 06:41:52;;;;;;;96.10;46.40;;;;;;;0.41;58.07;102085.56;5107818;28;20052;-66
2022/01/12 06:44:21;;;;;;;99.18;45.72;;;;;;;0.47;58.27;102086.44;5106245;28;20526;-67
2022/01/12 06:46:51;;;;;;;118.95;57.58;;;;;;;0.41;58.21;102090.78;5126179;28;20062;-67
2022/01/12 06:49:23;;;;;;;125.60;58.08;;;;;;;0.35;58.75;102086.44;5104966;28;20122;-65
2022/01/12 06:51:50;;;;;;;115.97;58.95;;;;;;;0.38;58.47;102091.66;5104622;28;20079;-69
2022/01/12 06:54:17;;;;;;;142.98;69.40;;;;;;;0.40;58.74;102096.81;5106940;28;20131;-68
2022/01/12 06:56:44;;;;;;;187.25;90.72;;;;;;;0.35;58.59;102102.03;5108605;28;20071;-68
2022/01/12 06:59:11;;;;;;;149.20;80.40;;;;;;;0.29;59.03;102108.09;5109103;28;20099;-67
2022/01/12 07:01:39;;;;;;;135.82;67.82;;;;;;;0.29;59.04;102113.31;5105286;28;20051;-68
2022/01/12 07:04:06;;;;;;;123.97;58.88;;;;;;;0.36;59.00;102109.84;5106866;28;20054;-70
2022/01/12 07:06:34;;;;;;;93.53;48.05;;;;;;;0.43;59.10;102105.47;5112183;28;20418;-67
2022/01/12 07:09:01;;;;;;;102.13;51.75;;;;;;;0.52;58.81;102115.00;5112006;28;20058;-71
2022/01/12 07:11:28;;;;;;;110.47;56.22;;;;;;;0.47;58.63;102112.44;5105738;28;20139;-67
2022/01/12 07:13:55;;;;;;;130.32;61.20;;;;;;;0.38;58.94;102115.03;5106674;28;20134;-66
2022/01/12 07:16:22;;;;;;;94.03;43.47;;;;;;;0.41;59.06;102115.03;5106747;28;20530;-66
2022/01/12 07:18:51;;;;;;;100.22;42.15;;;;;;;0.53;58.59;102111.56;5106640;28;20059;-70
2022/01/12 07:21:18;;;;;;;101.07;44.90;;;;;;;0.65;58.70;102108.06;5102661;28;20044;-67
2022/01/12 07:23:48;;;;;;;107.32;46.58;;;;;;;0.80;58.16;102095.03;5105093;28;20043;-65
2022/01/12 07:26:15;;;;;;;93.40;45.60;;;;;;;0.90;58.28;102111.47;5105048;28;20035;-65
2022/01/12 07:28:43;;;;;;;113.30;48.50;;;;;;;1.00;58.08;102117.53;5104731;28;20109;-66
2022/01/12 07:31:10;;;;;;;131.43;56.28;;;;;;;1.00;58.00;102113.19;5104075;28;20043;-68
2022/01/12 07:33:37;;;;;;;142.57;76.72;;;;;;;0.99;58.09;102126.22;5103163;28;20052;-68
2022/01/12 07:36:05;;;;;;;110.32;60.95;;;;;;;0.80;57.86;102125.41;5105478;28;20047;-67
2022/01/12 07:38:32;;;;;;;120.25;49.58;;;;;;;0.76;58.20;102117.59;5105148;28;20063;-69
2022/01/12 07:41:00;;;;;;;132.88;62.97;;;;;;;0.87;58.03;102121.91;5104467;28;20062;-67
2022/01/12 07:43:27;;;;;;;116.53;55.78;;;;;;;0.92;57.73;102114.97;5105630;28;20539;-66
2022/01/12 07:45:54;;;;;;;92.95;44.75;;;;;;;1.09;57.50;102120.13;5103842;28;20054;-65
2022/01/12 07:48:21;;;;;;;106.38;44.88;;;;;;;1.23;57.30;102115.72;5105638;28;20047;-72
2022/01/12 07:50:48;;;;;;;88.70;42.38;;;;;;;1.37;57.17;102117.41;5102730;28;20171;-72
2022/01/12 07:53:15;;;;;;;90.47;39.67;;;;;;;1.52;56.89;102099.97;5105136;28;20135;-69
2022/01/12 07:55:42;;;;;;;112.57;46.67;;;;;;;1.64;56.80;102096.44;5104495;28;20115;-72
2022/01/12 07:58:11;;;;;;;104.20;47.50;;;;;;;1.75;56.56;102103.31;5106566;28;20047;-76
2022/01/12 08:00:38;;;;;;;112.28;51.20;;;;;;;1.86;56.34;102106.72;5108882;28;20047;-72
2022/01/12 08:03:05;;;;;;;121.90;57.58;;;;;;;1.90;56.27;102092.81;5105606;28;20135;-69
2022/01/12 08:05:32;;;;;;;100.53;50.17;;;;;;;1.94;56.58;102099.72;5106651;28;20794;-69
2022/01/12 08:07:59;;;;;;;90.85;39.03;;;;;;;1.97;56.48;102102.31;5106472;28;20047;-72
2022/01/12 08:10:26;;;;;;;72.68;36.75;;;;;;;2.02;56.42;102103.13;5106414;28;20058;-71
2022/01/12 08:12:53;;;;;;;85.18;38.58;;;;;;;2.04;56.37;102092.72;5106872;28;20047;-69
2022/01/12 08:15:21;;;;;;;72.07;37.13;;;;;;;2.09;56.17;102090.94;5106257;28;20058;-70
2022/01/12 08:17:48;;;;;;;79.75;35.85;;;;;;;2.14;56.08;102090.88;5106012;28;20047;-71
2022/01/12 08:20:21;;;;;;;86.40;40.13;;;;;;;2.17;56.17;102086.50;5103745;28;20802;-75
2022/01/12 08:22:47;;;;;;;69.68;33.85;;;;;;;2.20;56.09;102083.03;5107713;28;20566;-69
2022/01/12 08:25:14;;;;;;;77.95;36.33;;;;;;;2.23;56.07;102081.25;5105771;28;20046;-71
2022/01/12 08:27:41;;;;;;;73.35;35.40;;;;;;;2.27;55.90;102090.78;5118147;28;20044;-72
2022/01/12 08:30:16;;;;;;;75.35;35.83;;;;;;;2.31;55.86;102099.44;5118677;28;20039;-70
2022/01/12 08:32:45;;;;;;;75.60;33.78;;;;;;;2.37;55.85;102091.56;5098156;28;20057;-68
2022/01/12 08:35:12;;;;;;;76.18;33.92;;;;;;;2.37;55.80;102078.50;5116887;28;20130;-66
2022/01/12 08:37:40;;;;;;;60.38;30.48;;;;;;;2.37;55.74;102088.09;5119226;28;20039;-70
2022/01/12 08:40:08;;;;;;;74.13;32.25;;;;;;;2.40;55.73;102088.06;5116459;28;20039;-68
2022/01/12 08:42:35;;;;;;;64.82;29.45;;;;;;;2.50;55.37;102097.53;5112617;28;20047;-67
2022/01/12 08:45:05;;;;;;;64.38;27.40;;;;;;;2.54;55.19;102109.69;5105401;28;20043;-69
2022/01/12 08:47:32;;;;;;;60.20;28.33;;;;;;;2.58;55.33;102100.06;5103830;28;20046;-71
2022/01/12 08:50:00;;;;;;;59.40;28.25;;;;;;;2.57;55.26;102085.28;5103847;28;20048;-72
2022/01/12 08:52:30;;;;;;;70.07;30.30;;;;;;;2.56;55.25;102088.78;5103647;28;20491;-67
2022/01/12 08:54:59;;;;;;;53.92;26.52;;;;;;;2.49;55.49;102088.84;5105216;28;20101;-70
2022/01/12 08:57:28;;;;;;;54.50;26.95;;;;;;;2.51;55.13;102073.19;5104264;28;20080;-68
2022/01/12 08:59:56;;;;;;;55.58;25.13;;;;;;;2.54;55.12;102077.50;5103314;28;20079;-65
2022/01/12 09:02:23;;;;;;;47.45;22.80;;;;;;;2.55;55.18;102077.47;5105097;28;20044;-71
2022/01/12 09:04:50;;;;;;;52.58;23.40;;;;;;;2.56;55.01;102075.75;5104581;28;20077;-73
2022/01/12 09:07:18;;;;;;;49.67;25.88;;;;;;;2.54;54.91;102060.13;5102327;28;20127;-69
2022/01/12 09:09:45;;;;;;;49.50;22.48;;;;;;;2.56;54.73;102067.94;5105090;28;20047;-68
2022/01/12 09:12:13;;;;;;;43.88;21.77;;;;;;;2.62;54.77;102057.41;5105795;28;20663;-74
2022/01/12 09:14:40;;;;;;;39.75;19.13;;;;;;;2.60;54.85;102061.78;5102881;28;20054;-68
2022/01/12 09:17:15;;;;;;;37.88;20.83;;;;;;;2.59;54.81;102062.66;5104202;28;20126;-74
2022/01/12 09:19:42;;;;;;;;;;;;;;;2.80;54.38;102067.66;5103447;28;20056;-72
2022/01/12 09:22:09;;;;;;;42.60;21.15;;;;;;;2.68;54.59;102052.13;5101357;28;19920;-73
2022/01/12 09:24:37;;;;;;;42.35;20.40;;;;;;;2.68;54.44;102057.34;5106508;28;20086;-68
2022/01/12 09:27:05;;;;;;;47.00;21.92;;;;;;;2.61;54.49;102060.91;5103457;28;20057;-72
2022/01/12 09:29:32;;;;;;;49.45;20.02;;;;;;;2.63;54.54;102048.72;5103160;28;20118;-70
2022/01/12 09:31:59;;;;;;;41.22;21.25;;;;;;;2.71;54.36;102041.66;5104402;28;20091;-69
2022/01/12 09:34:26;;;;;;;50.65;21.10;;;;;;;2.76;53.96;102042.47;5101403;28;20043;-70
2022/01/12 09:36:53;;;;;;;41.85;21.65;;;;;;;2.79;54.00;102041.56;5100578;28;20065;-71
2022/01/12 09:39:20;;;;;;;42.80;19.02;;;;;;;2.78;53.93;102025.06;5102935;28;20467;-68
2022/01/12 09:41:49;;;;;;;52.75;21.90;;;;;;;2.77;53.69;102041.59;5102727;28;20518;-65
2022/01/12 09:44:17;;;;;;;51.13;23.40;;;;;;;2.81;53.62;102043.31;5102394;28;20062;-70
2022/01/12 09:46:44;;;;;;;47.78;22.90;;;;;;;2.88;53.47;102054.50;5103873;28;20039;-67
2022/01/12 09:49:12;;;;;;;41.72;21.30;;;;;;;2.93;53.59;102063.16;5101234;28;20075;-72
2022/01/12 09:51:39;;;;;;;56.55;26.40;;;;;;;2.95;53.22;102057.91;5099308;28;20159;-69
2022/01/12 09:54:06;;;;;;;58.72;25.80;;;;;;;2.97;53.19;102054.44;5102242;28;20052;-67
2022/01/12 09:56:33;;;;;;;49.00;22.65;;;;;;;3.02;52.90;102055.22;5100793;28;20126;-74
2022/01/12 09:59:03;;;;;;;49.90;25.23;;;;;;;3.07;52.79;102057.78;5104731;28;20047;-74
2022/01/12 10:01:32;;;;;;;42.35;22.55;;;;;;;3.05;52.88;102044.75;5105933;28;20138;-69
2022/01/12 10:04:14;;;;;;;54.10;27.20;;;;;;;3.01;52.95;102039.59;5104275;28;20559;-68
2022/01/12 10:06:45;;;;;;;44.97;23.52;;;;;;;2.98;52.87;102039.63;5105156;28;20124;-68
2022/01/12 10:09:13;;;;;;;52.25;22.88;;;;;;;3.02;52.83;102031.72;5108667;28;20055;-74
2022/01/12 10:11:49;;;;;;;49.00;25.90;;;;;;;2.99;52.53;102016.13;5104804;28;20062;-73
2022/01/12 10:14:18;;;;;;;45.40;21.35;;;;;;;3.04;52.54;102018.66;5106680;28;20040;-68
2022/01/12 10:16:52;;;;;;;42.92;19.85;;;;;;;3.06;52.44;102027.31;5107382;28;20130;-66
2022/01/12 10:19:27;;;;;;;51.00;28.52;;;;;;;3.09;52.26;102021.22;5105312;28;20048;-69
2022/01/12 10:21:55;;;;;;;46.22;22.40;;;;;;;3.04;52.17;102034.31;5112057;28;20112;-73
2022/01/12 10:24:23;;;;;;;49.42;23.15;;;;;;;3.01;52.02;102034.38;5116599;28;20047;-72
2022/01/12 10:26:55;;;;;;;47.47;24.85;;;;;;;3.02;52.11;102039.53;5111586;28;20039;-70
2022/01/12 10:29:26;;;;;;;57.17;28.33;;;;;;;2.97;51.73;102038.78;5106245;28;20093;-74
2022/01/12 10:31:55;;;;;;;58.15;27.20;;;;;;;2.95;52.00;102037.03;5104824;28;20043;-68
2022/01/12 10:34:24;;;;;;;61.53;31.92;;;;;;;3.01;51.78;102026.53;5103653;28;20047;-68
2022/01/12 10:36:52;;;;;;;56.17;30.02;;;;;;;2.98;51.77;102021.34;5108602;27;20096;-67
2022/01/12 10:39:21;;;;;;;48.58;25.75;;;;;;;2.97;51.74;102017.00;5105726;28;20044;-71
2022/01/12 10:41:58;;;;;;;54.60;28.27;;;;;;;2.98;51.81;102018.75;5104099;28;20715;-67
2022/01/12 10:44:31;;;;;;;57.42;27.70;;;;;;;3.02;51.50;102009.97;5107210;28;20267;-66
2022/01/12 10:47:13;;;;;;;44.72;23.17;;;;;;;3.21;51.57;102015.84;5103307;28;20627;-67
2022/01/12 10:49:43;;;;;;;45.60;24.13;;;;;;;3.24;50.92;102021.88;5103607;28;20419;-68
2022/01/12 10:52:13;;;;;;;52.28;27.63;;;;;;;3.31;50.88;102017.41;5101569;28;20054;-67
2022/01/12 10:54:46;;;;;;;48.78;25.55;;;;;;;3.37;51.03;102019.09;5102253;28;20418;-67
2022/01/12 10:57:23;;;;;;;43.63;23.40;;;;;;;3.48;50.83;102016.34;5104301;28;20112;-67
2022/01/12 11:00:10;;;;;;;47.50;23.15;;;;;;;3.62;50.62;102014.38;5103949;28;20053;-75
2022/01/12 11:02:39;;;;;;;42.92;25.10;;;;;;;3.68;50.12;102018.66;5102369;28;20495;-71
2022/01/12 11:05:08;;;;;;;58.25;27.33;;;;;;;3.63;50.36;102011.72;5103466;28;20053;-73
2022/01/12 11:07:35;;;;;;;53.33;25.42;;;;;;;3.70;50.30;102007.28;5104193;28;20059;-70
2022/01/12 11:10:05;;;;;;;41.42;23.50;;;;;;;3.68;50.30;102001.22;5102912;28;20061;-73
2022/01/12 11:12:35;;;;;;;50.00;24.58;;;;;;;3.63;50.23;102003.03;5106099;28;20065;-72
2022/01/12 11:15:02;;;;;;;48.03;25.08;;;;;;;3.57;50.19;102004.00;5105079;28;20195;-71
2022/01/12 11:17:30;;;;;;;51.88;25.73;;;;;;;3.54;50.30;101996.19;5104836;28;20050;-68
2022/01/12 11:20:05;;;;;;;51.80;26.23;;;;;;;3.58;50.51;101989.16;5105020;28;20130;-73
2022/01/12 11:22:41;;;;;;;56.17;25.33;;;;;;;3.64;50.27;101984.72;5105103;28;20050;-75
2022/01/12 11:25:19;;;;;;;44.83;22.85;;;;;;;3.70;50.22;101977.66;5105641;28;20122;-71
2022/01/12 11:27:51;;;;;;;45.83;22.52;;;;;;;3.76;50.01;101982.78;5105597;28;20574;-69
2022/01/12 11:30:20;;;;;;;54.65;27.02;;;;;;;3.80;49.80;101990.56;5105512;28;20465;-79
2022/01/12 11:32:59;;;;;;;44.53;25.42;;;;;;;3.76;49.92;101994.13;5104856;28;20055;-73
2022/01/12 11:35:28;;;;;;;49.03;25.08;;;;;;;3.70;50.00;101975.91;5105449;28;20058;-77
2022/01/12 11:37:59;;;;;;;46.50;24.67;;;;;;;3.69;50.02;101976.81;5104193;28;20054;-69
2022/01/12 11:40:37;;;;;;;46.60;27.27;;;;;;;3.67;50.09;101967.25;5105757;28;20043;-77
2022/01/12 11:43:05;;;;;;;52.70;24.90;;;;;;;3.68;50.04;101963.78;5107134;28;20054;-70
2022/01/12 11:45:32;;;;;;;52.10;24.27;;;;;;;3.70;50.13;101977.66;5107986;28;20608;-71
2022/01/12 11:48:01;;;;;;;54.63;30.55;;;;;;;3.64;50.09;101979.50;5106102;28;20051;-72
2022/01/12 11:50:28;;;;;;;66.40;39.95;;;;;;;3.52;49.90;101984.91;5108792;28;20452;-73
2022/01/12 11:52:55;;;;;;;56.33;29.77;;;;;;;3.41;50.14;101981.59;5110867;28;20096;-68
2022/01/12 11:55:22;;;;;;;60.85;30.02;;;;;;;3.36;50.50;101978.19;5110139;28;20059;-69
2022/01/12 11:57:52;;;;;;;60.15;35.60;;;;;;;3.35;50.44;101979.94;5108789;28;20048;-72
2022/01/12 12:00:21;;;;;;;59.78;29.83;;;;;;;3.35;50.45;101972.09;5105160;28;20036;-77
2022/01/12 12:02:49;;;;;;;55.35;29.10;;;;;;;3.34;50.37;101967.75;5105350;28;20479;-74
2022/01/12 12:05:19;;;;;;;63.30;32.25;;;;;;;3.28;50.73;101965.25;5103001;28;20732;-75
2022/01/12 12:07:48;;;;;;;56.58;28.80;;;;;;;3.20;50.82;101956.66;5103595;28;20588;-70
2022/01/12 12:10:18;;;;;;;59.28;31.38;;;;;;;3.13;51.05;101942.81;5103756;28;20090;-70
2022/01/12 12:12:45;;;;;;;60.35;32.70;;;;;;;3.04;51.14;101946.44;5105588;28;20052;-70
2022/01/12 12:15:14;;;;;;;64.20;31.27;;;;;;;2.97;51.56;101942.19;5108303;28;20310;-71
2022/01/12 12:17:43;;;;;;;74.97;34.80;;;;;;;2.99;51.49;101945.63;5107279;28;20052;-73
2022/01/12 12:20:13;;;;;;;54.28;27.38;;;;;;;2.99;51.49;101953.47;5101280;28;20077;-70
2022/01/12 12:22:44;;;;;;;62.13;31.00;;;;;;;3.02;51.56;101957.78;5107813;28;20127;-70
2022/01/12 12:25:13;;;;;;;58.60;30.15;;;;;;;3.03;51.42;101949.06;5105691;28;20154;-71
2022/01/12 12:27:43;;;;;;;64.18;32.95;;;;;;;3.15;51.28;101948.91;5108227;28;20528;-75
2022/01/12 12:30:13;;;;;;;71.28;34.75;;;;;;;3.23;51.01;101943.56;5102142;28;20048;-72
2022/01/12 12:32:42;;;;;;;68.90;32.83;;;;;;;3.24;51.32;101940.03;5102350;28;20138;-70